sensor_id;sensor_type;location;lat;lon;timestamp;P1;durP1;ratioP1;P2;durP2;ratioP2
10902;SDS011;5504;47.312;11.060;2022-07-23T00:01:21;12.13;;;10.88;;
10902;SDS011;5504;47.312;11.060;2022-07-23T00:03:47;13.05;;;11.85;;
10902;SDS011;5504;47.312;11.060;2022-07-23T00:06:13;13.00;;;11.80;;
10902;SDS011;5504;47.312;11.060;2022-07-23T00:08:39;13.35;;;12.05;;
10902;SDS011;5504;47.312;11.060;2022-07-23T00:11:04;11.52;;;10.52;;
10902;SDS011;5504;47.312;11.060;2022-07-23T00:13:30;12.80;;;11.50;;
10902;SDS011;5504;47.312;11.060;2022-07-23T00:15:56;12.10;;;10.95;;
10902;SDS011;5504;47.312;11.060;2022-07-23T00:18:22;12.30;;;11.18;;
10902;SDS011;5504;47.312;11.060;2022-07-23T00:20:48;12.25;;;11.05;;
10902;SDS011;5504;47.312;11.060;2022-07-23T00:23:14;12.65;;;11.55;;
10902;SDS011;5504;47.312;11.060;2022-07-23T00:25:40;12.82;;;11.50;;
10902;SDS011;5504;47.312;11.060;2022-07-23T00:28:06;12.13;;;10.93;;
10902;SDS011;5504;47.312;11.060;2022-07-23T00:30:32;12.82;;;11.63;;
10902;SDS011;5504;47.312;11.060;2022-07-23T00:32:59;12.77;;;11.57;;
10902;SDS011;5504;47.312;11.060;2022-07-23T00:35:28;12.50;;;11.40;;
10902;SDS011;5504;47.312;11.060;2022-07-23T00:37:56;12.65;;;11.45;;
10902;SDS011;5504;47.312;11.060;2022-07-23T00:40:23;13.18;;;11.93;;
10902;SDS011;5504;47.312;11.060;2022-07-23T00:42:49;12.98;;;11.73;;
10902;SDS011;5504;47.312;11.060;2022-07-23T00:45:15;13.70;;;12.40;;
10902;SDS011;5504;47.312;11.060;2022-07-23T00:47:41;13.48;;;12.27;;
10902;SDS011;5504;47.312;11.060;2022-07-23T00:50:07;13.65;;;12.23;;
10902;SDS011;5504;47.312;11.060;2022-07-23T00:52:34;13.65;;;12.35;;
10902;SDS011;5504;47.312;11.060;2022-07-23T00:55:02;12.93;;;11.63;;
10902;SDS011;5504;47.312;11.060;2022-07-23T00:57:29;13.68;;;12.38;;
10902;SDS011;5504;47.312;11.060;2022-07-23T00:59:55;14.20;;;12.85;;
10902;SDS011;5504;47.312;11.060;2022-07-23T01:02:21;14.68;;;13.18;;
10902;SDS011;5504;47.312;11.060;2022-07-23T01:04:46;13.27;;;12.10;;
10902;SDS011;5504;47.312;11.060;2022-07-23T01:07:12;13.20;;;11.93;;
10902;SDS011;5504;47.312;11.060;2022-07-23T01:09:38;13.75;;;12.38;;
10902;SDS011;5504;47.312;11.060;2022-07-23T01:12:05;14.13;;;12.63;;
10902;SDS011;5504;47.312;11.060;2022-07-23T01:14:31;13.60;;;12.38;;
10902;SDS011;5504;47.312;11.060;2022-07-23T01:20:21;13.45;;;12.15;;
10902;SDS011;5504;47.312;11.060;2022-07-23T01:22:47;13.90;;;12.50;;
10902;SDS011;5504;47.312;11.060;2022-07-23T01:25:14;12.50;;;11.40;;
10902;SDS011;5504;47.312;11.060;2022-07-23T01:27:40;14.95;;;13.55;;
10902;SDS011;5504;47.312;11.060;2022-07-23T01:30:06;15.93;;;14.32;;
10902;SDS011;5504;47.312;11.060;2022-07-23T01:32:32;16.73;;;15.07;;
10902;SDS011;5504;47.312;11.060;2022-07-23T01:34:58;17.13;;;15.50;;
10902;SDS011;5504;47.312;11.060;2022-07-23T01:37:24;15.90;;;14.17;;
10902;SDS011;5504;47.312;11.060;2022-07-23T01:39:50;16.08;;;14.48;;
10902;SDS011;5504;47.312;11.060;2022-07-23T01:42:15;15.57;;;14.10;;
10902;SDS011;5504;47.312;11.060;2022-07-23T01:44:41;15.88;;;14.30;;
10902;SDS011;5504;47.312;11.060;2022-07-23T01:47:07;14.73;;;13.32;;
10902;SDS011;5504;47.312;11.060;2022-07-23T01:49:32;14.18;;;12.98;;
10902;SDS011;5504;47.312;11.060;2022-07-23T01:51:58;14.40;;;12.93;;
10902;SDS011;5504;47.312;11.060;2022-07-23T01:54:30;14.80;;;13.30;;
10902;SDS011;5504;47.312;11.060;2022-07-23T01:56:58;14.45;;;13.05;;
10902;SDS011;5504;47.312;11.060;2022-07-23T01:59:25;15.20;;;13.68;;
10902;SDS011;5504;47.312;11.060;2022-07-23T02:01:51;15.52;;;13.95;;
10902;SDS011;5504;47.312;11.060;2022-07-23T02:04:18;14.35;;;12.93;;
10902;SDS011;5504;47.312;11.060;2022-07-23T02:06:44;14.10;;;12.70;;
10902;SDS011;5504;47.312;11.060;2022-07-23T02:09:10;14.18;;;12.88;;
10902;SDS011;5504;47.312;11.060;2022-07-23T02:11:35;13.85;;;12.48;;
10902;SDS011;5504;47.312;11.060;2022-07-23T02:14:01;13.90;;;12.52;;
10902;SDS011;5504;47.312;11.060;2022-07-23T02:16:27;13.50;;;12.30;;
10902;SDS011;5504;47.312;11.060;2022-07-23T02:18:53;14.27;;;12.65;;
10902;SDS011;5504;47.312;11.060;2022-07-23T02:21:19;16.40;;;14.70;;
10902;SDS011;5504;47.312;11.060;2022-07-23T02:23:44;16.17;;;14.60;;
10902;SDS011;5504;47.312;11.060;2022-07-23T02:26:11;17.07;;;15.23;;
10902;SDS011;5504;47.312;11.060;2022-07-23T02:28:36;16.57;;;14.90;;
10902;SDS011;5504;47.312;11.060;2022-07-23T02:31:02;16.00;;;14.40;;
10902;SDS011;5504;47.312;11.060;2022-07-23T02:33:28;15.23;;;13.63;;
10902;SDS011;5504;47.312;11.060;2022-07-23T02:35:54;15.43;;;13.88;;
10902;SDS011;5504;47.312;11.060;2022-07-23T02:38:20;15.45;;;13.95;;
10902;SDS011;5504;47.312;11.060;2022-07-23T02:40:46;15.18;;;13.75;;
10902;SDS011;5504;47.312;11.060;2022-07-23T02:43:12;15.40;;;13.82;;
10902;SDS011;5504;47.312;11.060;2022-07-23T02:45:37;14.65;;;13.23;;
10902;SDS011;5504;47.312;11.060;2022-07-23T02:48:03;15.32;;;13.82;;
10902;SDS011;5504;47.312;11.060;2022-07-23T02:50:29;14.65;;;13.20;;
10902;SDS011;5504;47.312;11.060;2022-07-23T02:52:55;15.60;;;13.95;;
10902;SDS011;5504;47.312;11.060;2022-07-23T02:55:20;14.13;;;12.82;;
10902;SDS011;5504;47.312;11.060;2022-07-23T02:57:46;14.80;;;13.35;;
10902;SDS011;5504;47.312;11.060;2022-07-23T03:00:12;14.52;;;13.07;;
10902;SDS011;5504;47.312;11.060;2022-07-23T03:02:38;15.48;;;13.98;;
10902;SDS011;5504;47.312;11.060;2022-07-23T03:05:03;14.82;;;13.32;;
10902;SDS011;5504;47.312;11.060;2022-07-23T03:07:30;15.75;;;14.15;;
10902;SDS011;5504;47.312;11.060;2022-07-23T03:09:55;17.00;;;14.70;;
10902;SDS011;5504;47.312;11.060;2022-07-23T03:12:21;16.10;;;14.43;;
10902;SDS011;5504;47.312;11.060;2022-07-23T03:14:47;16.02;;;14.43;;
10902;SDS011;5504;47.312;11.060;2022-07-23T03:17:12;15.57;;;14.07;;
10902;SDS011;5504;47.312;11.060;2022-07-23T03:19:38;15.98;;;13.80;;
10902;SDS011;5504;47.312;11.060;2022-07-23T03:22:04;14.60;;;13.10;;
10902;SDS011;5504;47.312;11.060;2022-07-23T03:24:30;15.35;;;13.75;;
10902;SDS011;5504;47.312;11.060;2022-07-23T03:27:14;14.30;;;12.73;;
10902;SDS011;5504;47.312;11.060;2022-07-23T03:29:40;14.40;;;12.90;;
10902;SDS011;5504;47.312;11.060;2022-07-23T03:32:06;16.08;;;14.38;;
10902;SDS011;5504;47.312;11.060;2022-07-23T03:34:32;15.13;;;13.65;;
10902;SDS011;5504;47.312;11.060;2022-07-23T03:36:58;16.20;;;14.48;;
10902;SDS011;5504;47.312;11.060;2022-07-23T03:39:23;14.63;;;13.20;;
10902;SDS011;5504;47.312;11.060;2022-07-23T03:41:49;15.98;;;14.25;;
10902;SDS011;5504;47.312;11.060;2022-07-23T03:44:15;15.27;;;13.80;;
10902;SDS011;5504;47.312;11.060;2022-07-23T03:46:40;15.52;;;13.82;;
10902;SDS011;5504;47.312;11.060;2022-07-23T03:49:06;15.07;;;13.55;;
10902;SDS011;5504;47.312;11.060;2022-07-23T03:51:32;13.03;;;11.83;;
10902;SDS011;5504;47.312;11.060;2022-07-23T03:53:58;12.97;;;11.20;;
10902;SDS011;5504;47.312;11.060;2022-07-23T03:56:23;13.02;;;11.73;;
10902;SDS011;5504;47.312;11.060;2022-07-23T03:58:49;12.75;;;11.48;;
10902;SDS011;5504;47.312;11.060;2022-07-23T04:01:15;11.03;;;9.93;;
10902;SDS011;5504;47.312;11.060;2022-07-23T04:03:41;12.07;;;10.90;;
10902;SDS011;5504;47.312;11.060;2022-07-23T04:06:06;11.63;;;10.53;;
10902;SDS011;5504;47.312;11.060;2022-07-23T04:08:32;12.00;;;10.80;;
10902;SDS011;5504;47.312;11.060;2022-07-23T04:10:58;11.50;;;10.50;;
10902;SDS011;5504;47.312;11.060;2022-07-23T04:13:23;11.67;;;10.57;;
10902;SDS011;5504;47.312;11.060;2022-07-23T04:15:49;11.73;;;10.38;;
10902;SDS011;5504;47.312;11.060;2022-07-23T04:18:16;11.38;;;10.13;;
10902;SDS011;5504;47.312;11.060;2022-07-23T04:20:46;10.95;;;9.90;;
10902;SDS011;5504;47.312;11.060;2022-07-23T04:23:12;10.60;;;9.50;;
10902;SDS011;5504;47.312;11.060;2022-07-23T04:25:38;10.82;;;9.55;;
10902;SDS011;5504;47.312;11.060;2022-07-23T04:28:04;10.48;;;9.38;;
10902;SDS011;5504;47.312;11.060;2022-07-23T04:30:29;10.60;;;9.60;;
10902;SDS011;5504;47.312;11.060;2022-07-23T04:32:55;9.27;;;8.43;;
10902;SDS011;5504;47.312;11.060;2022-07-23T04:35:21;12.20;;;9.82;;
10902;SDS011;5504;47.312;11.060;2022-07-23T04:37:47;9.95;;;8.90;;
10902;SDS011;5504;47.312;11.060;2022-07-23T04:40:12;9.32;;;8.27;;
10902;SDS011;5504;47.312;11.060;2022-07-23T04:42:38;10.90;;;8.93;;
10902;SDS011;5504;47.312;11.060;2022-07-23T04:45:05;10.27;;;8.88;;
10902;SDS011;5504;47.312;11.060;2022-07-23T04:47:31;9.93;;;8.90;;
10902;SDS011;5504;47.312;11.060;2022-07-23T04:49:57;9.73;;;8.77;;
10902;SDS011;5504;47.312;11.060;2022-07-23T04:52:23;9.77;;;8.88;;
10902;SDS011;5504;47.312;11.060;2022-07-23T04:54:49;9.85;;;8.95;;
10902;SDS011;5504;47.312;11.060;2022-07-23T04:57:15;10.70;;;9.65;;
10902;SDS011;5504;47.312;11.060;2022-07-23T04:59:41;10.70;;;8.75;;
10902;SDS011;5504;47.312;11.060;2022-07-23T05:02:07;9.07;;;8.18;;
10902;SDS011;5504;47.312;11.060;2022-07-23T05:04:32;8.75;;;7.78;;
10902;SDS011;5504;47.312;11.060;2022-07-23T05:06:58;8.57;;;7.78;;
10902;SDS011;5504;47.312;11.060;2022-07-23T05:09:24;8.55;;;7.75;;
10902;SDS011;5504;47.312;11.060;2022-07-23T05:11:50;8.07;;;7.28;;
10902;SDS011;5504;47.312;11.060;2022-07-23T05:14:15;8.43;;;7.35;;
10902;SDS011;5504;47.312;11.060;2022-07-23T05:16:41;8.75;;;7.60;;
10902;SDS011;5504;47.312;11.060;2022-07-23T05:19:07;8.55;;;7.72;;
10902;SDS011;5504;47.312;11.060;2022-07-23T05:21:33;8.38;;;7.60;;
10902;SDS011;5504;47.312;11.060;2022-07-23T05:23:58;8.70;;;7.80;;
10902;SDS011;5504;47.312;11.060;2022-07-23T05:26:24;9.02;;;8.13;;
10902;SDS011;5504;47.312;11.060;2022-07-23T05:28:50;8.27;;;7.50;;
10902;SDS011;5504;47.312;11.060;2022-07-23T05:31:16;8.20;;;7.40;;
10902;SDS011;5504;47.312;11.060;2022-07-23T05:33:42;8.25;;;7.55;;
10902;SDS011;5504;47.312;11.060;2022-07-23T05:36:08;8.30;;;7.50;;
10902;SDS011;5504;47.312;11.060;2022-07-23T05:38:34;8.73;;;7.90;;
10902;SDS011;5504;47.312;11.060;2022-07-23T05:41:00;8.43;;;7.72;;
10902;SDS011;5504;47.312;11.060;2022-07-23T05:43:26;8.40;;;7.60;;
10902;SDS011;5504;47.312;11.060;2022-07-23T05:45:52;8.40;;;7.60;;
10902;SDS011;5504;47.312;11.060;2022-07-23T05:48:18;9.02;;;8.13;;
10902;SDS011;5504;47.312;11.060;2022-07-23T05:50:45;8.40;;;7.60;;
10902;SDS011;5504;47.312;11.060;2022-07-23T05:53:11;8.27;;;7.55;;
10902;SDS011;5504;47.312;11.060;2022-07-23T05:55:37;8.55;;;7.75;;
10902;SDS011;5504;47.312;11.060;2022-07-23T05:58:03;8.15;;;7.45;;
10902;SDS011;5504;47.312;11.060;2022-07-23T06:00:29;7.90;;;7.20;;
10902;SDS011;5504;47.312;11.060;2022-07-23T06:02:55;8.02;;;7.28;;
10902;SDS011;5504;47.312;11.060;2022-07-23T06:05:21;8.48;;;7.63;;
10902;SDS011;5504;47.312;11.060;2022-07-23T06:07:46;8.40;;;7.55;;
10902;SDS011;5504;47.312;11.060;2022-07-23T06:10:12;8.43;;;7.57;;
10902;SDS011;5504;47.312;11.060;2022-07-23T06:12:38;8.30;;;7.53;;
10902;SDS011;5504;47.312;11.060;2022-07-23T06:15:04;8.52;;;7.72;;
10902;SDS011;5504;47.312;11.060;2022-07-23T06:17:30;9.68;;;8.63;;
10902;SDS011;5504;47.312;11.060;2022-07-23T06:19:55;7.78;;;7.07;;
10902;SDS011;5504;47.312;11.060;2022-07-23T06:22:21;8.80;;;7.72;;
10902;SDS011;5504;47.312;11.060;2022-07-23T06:24:48;8.73;;;7.85;;
10902;SDS011;5504;47.312;11.060;2022-07-23T06:27:14;8.20;;;7.47;;
10902;SDS011;5504;47.312;11.060;2022-07-23T06:29:39;8.73;;;7.88;;
10902;SDS011;5504;47.312;11.060;2022-07-23T06:32:06;8.73;;;7.93;;
10902;SDS011;5504;47.312;11.060;2022-07-23T06:34:32;9.18;;;7.80;;
10902;SDS011;5504;47.312;11.060;2022-07-23T06:36:58;8.98;;;8.18;;
10902;SDS011;5504;47.312;11.060;2022-07-23T06:39:24;9.00;;;7.78;;
10902;SDS011;5504;47.312;11.060;2022-07-23T06:41:50;8.05;;;7.25;;
10902;SDS011;5504;47.312;11.060;2022-07-23T06:44:15;8.77;;;7.88;;
10902;SDS011;5504;47.312;11.060;2022-07-23T06:46:41;8.80;;;7.90;;
10902;SDS011;5504;47.312;11.060;2022-07-23T06:49:07;9.13;;;8.10;;
10902;SDS011;5504;47.312;11.060;2022-07-23T06:51:32;9.05;;;8.25;;
10902;SDS011;5504;47.312;11.060;2022-07-23T06:53:59;9.02;;;8.23;;
10902;SDS011;5504;47.312;11.060;2022-07-23T06:56:24;8.82;;;8.02;;
10902;SDS011;5504;47.312;11.060;2022-07-23T06:58:50;10.15;;;9.15;;
10902;SDS011;5504;47.312;11.060;2022-07-23T07:01:16;9.82;;;8.93;;
10902;SDS011;5504;47.312;11.060;2022-07-23T07:03:41;9.95;;;8.95;;
10902;SDS011;5504;47.312;11.060;2022-07-23T07:06:07;9.75;;;8.75;;
10902;SDS011;5504;47.312;11.060;2022-07-23T07:08:33;10.10;;;9.05;;
10902;SDS011;5504;47.312;11.060;2022-07-23T07:10:59;9.43;;;8.57;;
10902;SDS011;5504;47.312;11.060;2022-07-23T07:13:24;8.98;;;8.07;;
10902;SDS011;5504;47.312;11.060;2022-07-23T07:15:50;8.00;;;7.30;;
10902;SDS011;5504;47.312;11.060;2022-07-23T07:18:16;8.50;;;7.70;;
10902;SDS011;5504;47.312;11.060;2022-07-23T07:20:41;7.78;;;6.85;;
10902;SDS011;5504;47.312;11.060;2022-07-23T07:23:07;7.88;;;7.18;;
10902;SDS011;5504;47.312;11.060;2022-07-23T07:25:33;9.07;;;8.23;;
10902;SDS011;5504;47.312;11.060;2022-07-23T07:27:58;8.68;;;7.85;;
10902;SDS011;5504;47.312;11.060;2022-07-23T07:30:24;7.85;;;7.15;;
10902;SDS011;5504;47.312;11.060;2022-07-23T07:32:50;8.50;;;7.80;;
10902;SDS011;5504;47.312;11.060;2022-07-23T07:35:16;8.25;;;7.03;;
10902;SDS011;5504;47.312;11.060;2022-07-23T07:37:42;8.10;;;7.40;;
10902;SDS011;5504;47.312;11.060;2022-07-23T07:40:08;7.18;;;6.57;;
10902;SDS011;5504;47.312;11.060;2022-07-23T07:42:34;7.13;;;6.53;;
10902;SDS011;5504;47.312;11.060;2022-07-23T07:44:59;6.82;;;6.22;;
10902;SDS011;5504;47.312;11.060;2022-07-23T07:47:26;7.05;;;6.35;;
10902;SDS011;5504;47.312;11.060;2022-07-23T07:49:51;7.20;;;6.15;;
10902;SDS011;5504;47.312;11.060;2022-07-23T07:52:17;7.32;;;6.63;;
10902;SDS011;5504;47.312;11.060;2022-07-23T07:54:43;6.68;;;6.00;;
10902;SDS011;5504;47.312;11.060;2022-07-23T07:57:08;6.93;;;6.32;;
10902;SDS011;5504;47.312;11.060;2022-07-23T07:59:34;6.30;;;5.80;;
10902;SDS011;5504;47.312;11.060;2022-07-23T08:02:01;6.72;;;6.13;;
10902;SDS011;5504;47.312;11.060;2022-07-23T08:04:27;7.43;;;6.70;;
10902;SDS011;5504;47.312;11.060;2022-07-23T08:06:53;7.45;;;6.85;;
10902;SDS011;5504;47.312;11.060;2022-07-23T08:09:18;7.72;;;6.90;;
10902;SDS011;5504;47.312;11.060;2022-07-23T08:11:44;6.85;;;6.25;;
10902;SDS011;5504;47.312;11.060;2022-07-23T08:14:10;6.78;;;6.18;;
10902;SDS011;5504;47.312;11.060;2022-07-23T08:16:36;5.90;;;5.30;;
10902;SDS011;5504;47.312;11.060;2022-07-23T08:19:02;6.68;;;6.07;;
10902;SDS011;5504;47.312;11.060;2022-07-23T08:21:27;6.82;;;6.05;;
10902;SDS011;5504;47.312;11.060;2022-07-23T08:23:53;6.53;;;5.68;;
10902;SDS011;5504;47.312;11.060;2022-07-23T08:26:19;5.45;;;4.82;;
10902;SDS011;5504;47.312;11.060;2022-07-23T08:28:44;5.55;;;5.05;;
10902;SDS011;5504;47.312;11.060;2022-07-23T08:31:10;5.15;;;4.75;;
10902;SDS011;5504;47.312;11.060;2022-07-23T08:33:37;5.35;;;4.85;;
10902;SDS011;5504;47.312;11.060;2022-07-23T08:36:03;5.20;;;4.70;;
10902;SDS011;5504;47.312;11.060;2022-07-23T08:38:29;5.05;;;4.65;;
10902;SDS011;5504;47.312;11.060;2022-07-23T08:40:56;5.10;;;4.60;;
10902;SDS011;5504;47.312;11.060;2022-07-23T08:43:25;4.90;;;4.50;;
10902;SDS011;5504;47.312;11.060;2022-07-23T08:45:53;4.93;;;4.50;;
10902;SDS011;5504;47.312;11.060;2022-07-23T08:48:22;5.13;;;4.63;;
10902;SDS011;5504;47.312;11.060;2022-07-23T08:50:53;4.88;;;4.47;;
10902;SDS011;5504;47.312;11.060;2022-07-23T08:53:21;4.72;;;4.30;;
10902;SDS011;5504;47.312;11.060;2022-07-23T08:55:48;5.03;;;4.40;;
10902;SDS011;5504;47.312;11.060;2022-07-23T08:58:20;4.75;;;4.35;;
10902;SDS011;5504;47.312;11.060;2022-07-23T09:00:47;4.65;;;4.30;;
10902;SDS011;5504;47.312;11.060;2022-07-23T09:03:17;4.90;;;4.50;;
10902;SDS011;5504;47.312;11.060;2022-07-23T09:05:44;5.72;;;4.35;;
10902;SDS011;5504;47.312;11.060;2022-07-23T09:08:14;4.55;;;4.15;;
10902;SDS011;5504;47.312;11.060;2022-07-23T09:10:51;4.53;;;4.13;;
10902;SDS011;5504;47.312;11.060;2022-07-23T09:13:29;4.32;;;3.92;;
10902;SDS011;5504;47.312;11.060;2022-07-23T09:16:11;4.45;;;4.05;;
10902;SDS011;5504;47.312;11.060;2022-07-23T09:18:39;4.57;;;4.18;;
10902;SDS011;5504;47.312;11.060;2022-07-23T09:21:14;4.95;;;4.45;;
10902;SDS011;5504;47.312;11.060;2022-07-23T09:23:58;5.55;;;4.93;;
10902;SDS011;5504;47.312;11.060;2022-07-23T09:26:38;5.13;;;4.63;;
10902;SDS011;5504;47.312;11.060;2022-07-23T09:36:44;5.22;;;4.72;;
10902;SDS011;5504;47.312;11.060;2022-07-23T09:39:11;5.65;;;5.15;;
10902;SDS011;5504;47.312;11.060;2022-07-23T09:41:47;5.13;;;4.70;;
10902;SDS011;5504;47.312;11.060;2022-07-23T09:44:14;5.63;;;5.00;;
10902;SDS011;5504;47.312;11.060;2022-07-23T09:46:41;4.90;;;4.50;;
10902;SDS011;5504;47.312;11.060;2022-07-23T09:49:18;5.05;;;4.65;;
10902;SDS011;5504;47.312;11.060;2022-07-23T09:51:53;5.10;;;4.70;;
10902;SDS011;5504;47.312;11.060;2022-07-23T09:54:28;5.88;;;5.25;;
10902;SDS011;5504;47.312;11.060;2022-07-23T09:57:11;6.13;;;5.63;;
10902;SDS011;5504;47.312;11.060;2022-07-23T09:59:42;5.22;;;4.82;;
10902;SDS011;5504;47.312;11.060;2022-07-23T10:02:11;4.97;;;4.45;;
10902;SDS011;5504;47.312;11.060;2022-07-23T10:04:38;5.60;;;4.97;;
10902;SDS011;5504;47.312;11.060;2022-07-23T10:07:05;5.50;;;5.00;;
10902;SDS011;5504;47.312;11.060;2022-07-23T10:09:34;6.50;;;5.88;;
10902;SDS011;5504;47.312;11.060;2022-07-23T10:12:03;6.30;;;5.70;;
10902;SDS011;5504;47.312;11.060;2022-07-23T10:14:39;6.25;;;5.65;;
10902;SDS011;5504;47.312;11.060;2022-07-23T10:17:05;6.43;;;5.20;;
10902;SDS011;5504;47.312;11.060;2022-07-23T10:19:32;5.15;;;4.75;;
10902;SDS011;5504;47.312;11.060;2022-07-23T10:21:59;5.18;;;4.68;;
10902;SDS011;5504;47.312;11.060;2022-07-23T10:32:59;4.50;;;4.10;;
10902;SDS011;5504;47.312;11.060;2022-07-23T10:35:47;4.85;;;4.40;;
10902;SDS011;5504;47.312;11.060;2022-07-23T10:38:27;4.53;;;4.13;;
10902;SDS011;5504;47.312;11.060;2022-07-23T10:41:02;4.80;;;4.40;;
10902;SDS011;5504;47.312;11.060;2022-07-23T10:43:29;4.70;;;4.30;;
10902;SDS011;5504;47.312;11.060;2022-07-23T10:45:56;4.70;;;4.30;;
10902;SDS011;5504;47.312;11.060;2022-07-23T10:55:38;5.13;;;4.68;;
10902;SDS011;5504;47.312;11.060;2022-07-23T10:57:46;4.60;;;4.30;;
10902;SDS011;5504;47.312;11.060;2022-07-23T11:00:25;4.82;;;4.43;;
10902;SDS011;5504;47.312;11.060;2022-07-23T11:02:54;4.43;;;4.03;;
10902;SDS011;5504;47.312;11.060;2022-07-23T11:05:24;4.93;;;4.43;;
10902;SDS011;5504;47.312;11.060;2022-07-23T11:16:04;4.55;;;4.15;;
10902;SDS011;5504;47.312;11.060;2022-07-23T11:37:05;5.20;;;4.47;;
10902;SDS011;5504;47.312;11.060;2022-07-23T11:39:33;4.93;;;4.53;;
10902;SDS011;5504;47.312;11.060;2022-07-23T11:41:59;4.75;;;4.30;;
10902;SDS011;5504;47.312;11.060;2022-07-23T11:44:26;4.72;;;4.32;;
10902;SDS011;5504;47.312;11.060;2022-07-23T11:46:54;4.50;;;4.20;;
10902;SDS011;5504;47.312;11.060;2022-07-23T11:49:21;4.32;;;4.03;;
10902;SDS011;5504;47.312;11.060;2022-07-23T11:51:47;4.75;;;4.35;;
10902;SDS011;5504;47.312;11.060;2022-07-23T11:54:29;4.10;;;3.78;;
10902;SDS011;5504;47.312;11.060;2022-07-23T11:56:56;4.75;;;4.13;;
10902;SDS011;5504;47.312;11.060;2022-07-23T11:59:24;4.70;;;4.40;;
10902;SDS011;5504;47.312;11.060;2022-07-23T12:02:01;4.82;;;4.18;;
10902;SDS011;5504;47.312;11.060;2022-07-23T12:04:43;4.80;;;4.40;;
10902;SDS011;5504;47.312;11.060;2022-07-23T12:07:26;4.90;;;4.50;;
10902;SDS011;5504;47.312;11.060;2022-07-23T12:10:25;4.72;;;4.32;;
10902;SDS011;5504;47.312;11.060;2022-07-23T12:12:49;4.72;;;4.32;;
10902;SDS011;5504;47.312;11.060;2022-07-23T12:15:20;4.90;;;4.50;;
10902;SDS011;5504;47.312;11.060;2022-07-23T12:17:56;4.78;;;4.38;;
10902;SDS011;5504;47.312;11.060;2022-07-23T12:20:44;4.70;;;4.30;;
10902;SDS011;5504;47.312;11.060;2022-07-23T12:23:12;5.20;;;4.70;;
10902;SDS011;5504;47.312;11.060;2022-07-23T12:25:40;5.10;;;4.70;;
10902;SDS011;5504;47.312;11.060;2022-07-23T12:28:10;4.47;;;4.18;;
10902;SDS011;5504;47.312;11.060;2022-07-23T12:30:41;4.85;;;4.45;;
10902;SDS011;5504;47.312;11.060;2022-07-23T12:33:11;4.72;;;4.32;;
10902;SDS011;5504;47.312;11.060;2022-07-23T12:35:46;4.97;;;4.57;;
10902;SDS011;5504;47.312;11.060;2022-07-23T12:38:19;4.78;;;4.32;;
10902;SDS011;5504;47.312;11.060;2022-07-23T12:40:50;5.00;;;4.70;;
10902;SDS011;5504;47.312;11.060;2022-07-23T12:43:28;4.95;;;4.55;;
10902;SDS011;5504;47.312;11.060;2022-07-23T12:48:33;5.28;;;4.82;;
10902;SDS011;5504;47.312;11.060;2022-07-23T12:51:05;4.85;;;4.45;;
10902;SDS011;5504;47.312;11.060;2022-07-23T12:53:39;4.40;;;4.10;;
10902;SDS011;5504;47.312;11.060;2022-07-23T12:56:11;4.68;;;4.30;;
10902;SDS011;5504;47.312;11.060;2022-07-23T12:58:57;4.40;;;4.10;;
10902;SDS011;5504;47.312;11.060;2022-07-23T13:04:12;4.30;;;4.00;;
10902;SDS011;5504;47.312;11.060;2022-07-23T13:06:47;4.18;;;3.78;;
10902;SDS011;5504;47.312;11.060;2022-07-23T13:09:19;4.50;;;4.20;;
10902;SDS011;5504;47.312;11.060;2022-07-23T13:11:49;4.55;;;4.20;;
10902;SDS011;5504;47.312;11.060;2022-07-23T13:14:16;4.13;;;3.83;;
10902;SDS011;5504;47.312;11.060;2022-07-23T13:16:43;4.35;;;4.03;;
10902;SDS011;5504;47.312;11.060;2022-07-23T13:19:10;4.60;;;4.20;;
10902;SDS011;5504;47.312;11.060;2022-07-23T13:21:36;4.80;;;4.43;;
10902;SDS011;5504;47.312;11.060;2022-07-23T13:24:02;4.70;;;4.35;;
10902;SDS011;5504;47.312;11.060;2022-07-23T13:26:28;4.72;;;4.32;;
10902;SDS011;5504;47.312;11.060;2022-07-23T13:28:54;4.80;;;4.35;;
10902;SDS011;5504;47.312;11.060;2022-07-23T13:31:20;4.93;;;4.53;;
10902;SDS011;5504;47.312;11.060;2022-07-23T13:33:45;4.80;;;4.40;;
10902;SDS011;5504;47.312;11.060;2022-07-23T13:36:11;4.30;;;4.00;;
10902;SDS011;5504;47.312;11.060;2022-07-23T13:38:37;4.80;;;4.38;;
10902;SDS011;5504;47.312;11.060;2022-07-23T13:41:04;5.15;;;4.65;;
10902;SDS011;5504;47.312;11.060;2022-07-23T13:43:30;5.68;;;5.28;;
10902;SDS011;5504;47.312;11.060;2022-07-23T13:45:56;5.03;;;4.63;;
10902;SDS011;5504;47.312;11.060;2022-07-23T13:48:22;4.97;;;4.47;;
10902;SDS011;5504;47.312;11.060;2022-07-23T13:50:48;5.47;;;5.07;;
10902;SDS011;5504;47.312;11.060;2022-07-23T13:53:19;5.80;;;5.30;;
10902;SDS011;5504;47.312;11.060;2022-07-23T13:55:47;5.25;;;4.75;;
10902;SDS011;5504;47.312;11.060;2022-07-23T13:58:15;5.53;;;5.13;;
10902;SDS011;5504;47.312;11.060;2022-07-23T14:00:42;5.63;;;5.13;;
10902;SDS011;5504;47.312;11.060;2022-07-23T14:03:11;5.65;;;5.22;;
10902;SDS011;5504;47.312;11.060;2022-07-23T14:05:36;5.45;;;5.00;;
10902;SDS011;5504;47.312;11.060;2022-07-23T14:08:02;6.00;;;5.40;;
10902;SDS011;5504;47.312;11.060;2022-07-23T14:10:28;6.00;;;5.40;;
10902;SDS011;5504;47.312;11.060;2022-07-23T14:12:55;5.50;;;5.00;;
10902;SDS011;5504;47.312;11.060;2022-07-23T14:15:23;5.47;;;4.97;;
10902;SDS011;5504;47.312;11.060;2022-07-23T14:17:51;5.43;;;5.03;;
10902;SDS011;5504;47.312;11.060;2022-07-23T14:20:17;5.60;;;5.10;;
10902;SDS011;5504;47.312;11.060;2022-07-23T14:22:43;5.78;;;5.18;;
10902;SDS011;5504;47.312;11.060;2022-07-23T14:25:08;5.60;;;5.20;;
10902;SDS011;5504;47.312;11.060;2022-07-23T14:27:35;5.05;;;4.65;;
10902;SDS011;5504;47.312;11.060;2022-07-23T14:30:02;5.30;;;4.90;;
10902;SDS011;5504;47.312;11.060;2022-07-23T14:32:29;6.07;;;5.57;;
10902;SDS011;5504;47.312;11.060;2022-07-23T14:34:55;6.05;;;5.55;;
10902;SDS011;5504;47.312;11.060;2022-07-23T14:37:20;6.78;;;5.63;;
10902;SDS011;5504;47.312;11.060;2022-07-23T14:39:46;6.18;;;5.68;;
10902;SDS011;5504;47.312;11.060;2022-07-23T14:42:13;6.22;;;5.63;;
10902;SDS011;5504;47.312;11.060;2022-07-23T14:44:38;5.72;;;5.22;;
10902;SDS011;5504;47.312;11.060;2022-07-23T14:47:04;5.72;;;5.30;;
10902;SDS011;5504;47.312;11.060;2022-07-23T14:49:31;5.55;;;5.15;;
10902;SDS011;5504;47.312;11.060;2022-07-23T14:51:57;5.85;;;5.25;;
10902;SDS011;5504;47.312;11.060;2022-07-23T14:54:24;5.70;;;5.25;;
10902;SDS011;5504;47.312;11.060;2022-07-23T14:56:51;6.00;;;5.50;;
10902;SDS011;5504;47.312;11.060;2022-07-23T14:59:18;6.60;;;5.95;;
10902;SDS011;5504;47.312;11.060;2022-07-23T15:01:43;5.80;;;5.20;;
10902;SDS011;5504;47.312;11.060;2022-07-23T15:04:09;6.35;;;5.72;;
10902;SDS011;5504;47.312;11.060;2022-07-23T15:06:35;5.65;;;5.15;;
10902;SDS011;5504;47.312;11.060;2022-07-23T15:09:01;5.78;;;5.28;;
10902;SDS011;5504;47.312;11.060;2022-07-23T15:11:27;6.35;;;5.80;;
10902;SDS011;5504;47.312;11.060;2022-07-23T15:13:56;6.97;;;6.45;;
10902;SDS011;5504;47.312;11.060;2022-07-23T15:16:21;5.70;;;5.30;;
10902;SDS011;5504;47.312;11.060;2022-07-23T15:18:47;5.85;;;5.35;;
10902;SDS011;5504;47.312;11.060;2022-07-23T15:21:13;6.22;;;5.65;;
10902;SDS011;5504;47.312;11.060;2022-07-23T15:23:39;6.00;;;5.60;;
10902;SDS011;5504;47.312;11.060;2022-07-23T15:26:05;6.13;;;5.63;;
10902;SDS011;5504;47.312;11.060;2022-07-23T15:28:33;7.03;;;6.32;;
10902;SDS011;5504;47.312;11.060;2022-07-23T15:30:59;6.80;;;6.20;;
10902;SDS011;5504;47.312;11.060;2022-07-23T15:33:25;7.10;;;6.50;;
10902;SDS011;5504;47.312;11.060;2022-07-23T15:35:51;6.70;;;6.20;;
10902;SDS011;5504;47.312;11.060;2022-07-23T15:38:20;7.28;;;6.57;;
10902;SDS011;5504;47.312;11.060;2022-07-23T15:40:45;7.13;;;6.53;;